Terminal Aerodrome Forecast
Issued by NWS Boston, MA

Home | Current Version | Previous Version | Text Only | Print | Product List | Glossary On
Versions: 1 2 3 4 5 6 7 8 9 10 11 12 13 14 15 16 17 18 19 20 21 22 23 24 25 26 27 28 29 30 31 32 33 34 35 36 37 38 39 40 41 42 43 44 45 46 47 48 49 50
364
FTUS41 KBOX 111737
TAFBOS
TAF
KBOS 111737Z 1118/1224 28010G19KT P6SM SCT040
     FM112300 28006KT P6SM SCT250
     FM120300 VRB03KT P6SM BKN200
     FM121200 13012G19KT P6SM VCSH OVC035
     FM121300 14014G23KT 5SM -SHRASN OVC015
     FM121400 14015G25KT 3SM -SHRA OVC010
     FM122100 17015G24KT P6SM OVC008
     FM122300 21012G22KT P6SM BKN015=

USA.gov is the U.S. government's official web portal to all federal, state and local government web resources and services.